createdAt,value
2019-03-25T00:00:19.527Z,20.50
2019-03-25T00:02:52.695Z,20.80
2019-03-25T00:05:25.555Z,20.70
2019-03-25T00:07:59.338Z,20.40
2019-03-25T00:10:33.414Z,20.20
2019-03-25T00:13:06.666Z,20.30
2019-03-25T00:15:39.934Z,20.50
2019-03-25T00:18:15.619Z,20.60
2019-03-25T00:20:49.638Z,20.80
2019-03-25T00:23:22.897Z,21.00
2019-03-25T00:25:59.142Z,20.90
2019-03-25T00:28:33.803Z,20.70
2019-03-25T00:31:07.578Z,20.80
2019-03-25T00:33:41.569Z,21.00
2019-03-25T00:36:14.868Z,21.20
2019-03-25T00:38:49.150Z,21.30
2019-03-25T00:41:22.415Z,21.40
2019-03-25T00:43:55.627Z,21.10
2019-03-25T00:46:28.886Z,20.90
2019-03-25T00:49:02.726Z,21.00
2019-03-25T00:51:37.050Z,21.00
2019-03-25T00:54:10.248Z,21.00
2019-03-25T00:56:43.344Z,20.90
2019-03-25T00:59:17.324Z,20.70
2019-03-25T01:01:51.761Z,20.10
2019-03-25T01:04:25.093Z,19.80
2019-03-25T01:06:58.454Z,19.80
2019-03-25T01:09:32.798Z,20.00
2019-03-25T01:12:06.536Z,20.20
2019-03-25T01:14:40.255Z,20.10
2019-03-25T01:17:13.248Z,19.90
2019-03-25T01:19:46.101Z,20.10
2019-03-25T01:22:19.798Z,20.10
2019-03-25T01:25:01.765Z,20.30
2019-03-25T01:27:28.526Z,20.30
2019-03-25T01:30:01.335Z,20.50
2019-03-25T01:32:34.943Z,20.70
2019-03-25T01:35:09.122Z,20.80
2019-03-25T01:37:43.993Z,20.80
2019-03-25T01:40:17.845Z,20.90
2019-03-25T01:42:51.255Z,20.60
2019-03-25T01:45:26.454Z,20.30
2019-03-25T01:47:59.343Z,19.60
2019-03-25T01:50:32.512Z,19.20
2019-03-25T01:53:07.689Z,18.80
2019-03-25T01:55:41.020Z,18.60
2019-03-25T01:58:16.611Z,18.40
2019-03-25T02:00:51.129Z,18.30
2019-03-25T02:03:25.945Z,18.60
2019-03-25T02:06:01.404Z,18.90
2019-03-25T02:08:34.899Z,18.70
2019-03-25T02:11:07.631Z,18.70
2019-03-25T02:13:42.091Z,18.50
2019-03-25T02:16:15.241Z,18.40
2019-03-25T02:18:48.427Z,18.30
2019-03-25T02:21:21.647Z,18.40
2019-03-25T02:23:56.128Z,18.60
2019-03-25T02:26:30.138Z,18.70
2019-03-25T02:29:03.504Z,18.90
2019-03-25T02:31:37.685Z,19.30
2019-03-25T02:34:11.395Z,19.70
2019-03-25T02:36:44.618Z,19.80
2019-03-25T02:39:17.912Z,19.80
2019-03-25T02:41:52.291Z,19.80
2019-03-25T02:44:26.028Z,19.70
2019-03-25T02:46:59.225Z,19.70
2019-03-25T02:49:33.284Z,19.60
2019-03-25T02:52:06.511Z,19.40
2019-03-25T02:54:40.069Z,19.20
2019-03-25T02:57:13.969Z,19.00
2019-03-25T02:59:48.561Z,19.00
2019-03-25T03:02:22.542Z,18.90
2019-03-25T03:04:56.147Z,18.80
2019-03-25T03:07:29.585Z,18.80
2019-03-25T03:10:04.491Z,18.60
2019-03-25T03:12:38.595Z,18.70
2019-03-25T03:15:11.864Z,18.10
2019-03-25T03:17:46.355Z,18.10
2019-03-25T03:20:19.963Z,18.20
2019-03-25T03:22:54.327Z,18.30
2019-03-25T03:25:28.411Z,18.10
2019-03-25T03:28:04.010Z,18.10
2019-03-25T03:30:36.846Z,18.40
2019-03-25T03:33:10.864Z,18.70
2019-03-25T03:35:46.464Z,18.50
2019-03-25T03:38:20.730Z,18.50
2019-03-25T03:40:54.418Z,18.30
2019-03-25T03:43:27.744Z,18.00
2019-03-25T03:46:01.447Z,17.90
2019-03-25T03:48:34.246Z,17.90
2019-03-25T03:51:09.864Z,17.70
2019-03-25T03:53:45.405Z,17.30
2019-03-25T03:56:19.506Z,17.40
2019-03-25T03:58:53.345Z,17.00
2019-03-25T04:01:26.123Z,16.80
2019-03-25T04:04:00.685Z,16.50
2019-03-25T04:06:35.492Z,16.50
2019-03-25T04:09:10.409Z,16.60
2019-03-25T04:11:43.688Z,16.70
2019-03-25T04:14:17.319Z,16.70
2019-03-25T04:16:52.808Z,17.20
2019-03-25T04:19:25.990Z,17.50
2019-03-25T04:21:58.840Z,17.50
2019-03-25T04:24:32.662Z,17.40
2019-03-25T04:27:06.681Z,17.60
2019-03-25T04:29:40.466Z,17.50
2019-03-25T04:32:14.601Z,17.00
2019-03-25T04:34:48.062Z,17.20
2019-03-25T04:37:20.919Z,17.60
2019-03-25T04:39:55.381Z,17.50
2019-03-25T04:42:29.314Z,17.80
2019-03-25T04:45:02.589Z,18.00
2019-03-25T04:47:36.495Z,18.00
2019-03-25T04:50:12.313Z,18.00
2019-03-25T04:52:45.561Z,18.00
2019-03-25T04:55:19.590Z,17.80
2019-03-25T04:57:52.908Z,17.80
2019-03-25T05:00:39.142Z,18.10
2019-03-25T05:03:13.917Z,18.40
2019-03-25T05:05:47.922Z,18.50
2019-03-25T05:08:22.214Z,18.50
2019-03-25T05:10:56.556Z,18.30
2019-03-25T05:13:31.837Z,18.40
2019-03-25T05:16:05.570Z,18.50
2019-03-25T05:18:40.411Z,18.50
2019-03-25T05:21:18.488Z,18.10
2019-03-25T05:23:54.169Z,18.00
2019-03-25T05:26:28.896Z,17.60
2019-03-25T05:29:02.643Z,17.10
2019-03-25T05:31:38.100Z,17.40
2019-03-25T05:34:10.966Z,17.60
2019-03-25T05:36:44.683Z,17.70
2019-03-25T05:39:18.419Z,17.80
2019-03-25T05:41:51.696Z,17.30
2019-03-25T05:44:24.885Z,16.70
2019-03-25T05:46:58.997Z,16.90
2019-03-25T05:49:32.975Z,16.30
2019-03-25T05:52:07.184Z,16.50
2019-03-25T05:54:39.964Z,16.20
2019-03-25T05:57:13.934Z,15.60
2019-03-25T05:59:48.902Z,15.20
2019-03-25T06:02:23.498Z,15.40
2019-03-25T06:04:57.330Z,15.50
2019-03-25T06:07:30.605Z,15.60
2019-03-25T06:10:03.945Z,15.70
2019-03-25T06:12:37.736Z,15.60
2019-03-25T06:15:12.071Z,15.70
2019-03-25T06:17:47.243Z,15.80
2019-03-25T06:20:21.128Z,16.00
2019-03-25T06:22:54.880Z,16.10
2019-03-25T06:25:28.994Z,15.60
2019-03-25T06:28:01.780Z,15.80
2019-03-25T06:30:36.603Z,15.30
2019-03-25T06:33:12.669Z,15.70
2019-03-25T06:35:46.164Z,15.10
2019-03-25T06:38:19.609Z,15.00
2019-03-25T06:40:53.288Z,15.60
2019-03-25T06:43:27.295Z,15.50
2019-03-25T06:46:02.787Z,15.70
2019-03-25T06:48:36.803Z,15.80
2019-03-25T06:51:10.771Z,15.80
2019-03-25T06:53:44.826Z,15.80
2019-03-25T06:56:18.450Z,15.90
2019-03-25T06:58:51.711Z,15.90
2019-03-25T07:01:24.593Z,15.90
2019-03-25T07:03:57.763Z,16.10
2019-03-25T07:06:31.452Z,16.50
2019-03-25T07:09:05.774Z,16.80
2019-03-25T07:11:41.280Z,16.70
2019-03-25T07:14:16.264Z,17.00
2019-03-25T07:16:49.700Z,16.20
2019-03-25T07:19:24.937Z,16.10
2019-03-25T07:21:59.593Z,15.80
2019-03-25T07:24:33.564Z,15.40
2019-03-25T07:27:07.216Z,14.60
2019-03-25T07:29:40.978Z,14.60
2019-03-25T07:32:14.304Z,14.60
2019-03-25T07:34:47.903Z,15.40
2019-03-25T07:37:23.702Z,15.50
2019-03-25T07:39:57.944Z,15.60
2019-03-25T07:42:32.520Z,15.60
2019-03-25T07:45:06.234Z,15.30
2019-03-25T07:47:40.493Z,15.10
2019-03-25T07:50:15.866Z,15.70
2019-03-25T07:52:49.624Z,15.90
2019-03-25T07:55:22.985Z,16.30
2019-03-25T07:57:57.302Z,16.90
2019-03-25T08:00:31.307Z,17.20
2019-03-25T08:03:04.964Z,17.30
2019-03-25T08:05:38.871Z,17.50
2019-03-25T08:08:11.658Z,17.90
2019-03-25T08:10:44.450Z,18.10
2019-03-25T08:13:17.330Z,18.30
2019-03-25T08:15:50.513Z,18.10
2019-03-25T08:18:24.181Z,18.00
2019-03-25T08:20:57.945Z,17.80
2019-03-25T08:23:31.238Z,17.90
2019-03-25T08:26:05.365Z,18.10
2019-03-25T08:28:38.678Z,17.10
2019-03-25T08:31:12.067Z,17.00
2019-03-25T08:33:47.146Z,16.80
2019-03-25T08:36:21.625Z,17.00
2019-03-25T08:38:56.218Z,17.30
2019-03-25T08:41:31.092Z,16.80
2019-03-25T08:44:06.329Z,16.90
2019-03-25T08:46:40.106Z,16.50
2019-03-25T08:49:15.043Z,15.70
2019-03-25T08:51:48.660Z,15.80
2019-03-25T08:54:23.099Z,15.20
2019-03-25T08:56:57.015Z,15.50
2019-03-25T08:59:31.288Z,16.30
2019-03-25T09:02:04.582Z,16.70
2019-03-25T09:04:40.018Z,16.70
2019-03-25T09:07:13.671Z,16.60
2019-03-25T09:09:47.018Z,17.20
2019-03-25T09:12:21.594Z,17.60
2019-03-25T09:14:56.308Z,18.00
2019-03-25T09:17:32.846Z,18.30
2019-03-25T09:20:08.885Z,18.30
2019-03-25T09:22:41.682Z,18.10
2019-03-25T09:25:15.367Z,18.20
2019-03-25T09:27:49.791Z,18.30
2019-03-25T09:31:21.744Z,18.50
2019-03-25T09:33:55.752Z,18.10
2019-03-25T09:36:29.055Z,18.10
2019-03-25T09:39:05.831Z,18.10
2019-03-25T09:41:41.185Z,18.10
2019-03-25T09:44:15.082Z,18.20
2019-03-25T09:46:50.138Z,18.30
2019-03-25T09:49:24.840Z,18.60
2019-03-25T09:51:58.542Z,18.80
2019-03-25T09:54:31.746Z,18.70
2019-03-25T09:57:05.279Z,18.80
2019-03-25T09:59:40.913Z,19.10
2019-03-25T10:02:15.682Z,19.00
2019-03-25T10:04:49.864Z,18.80
2019-03-25T10:07:28.542Z,19.00
2019-03-25T10:10:02.944Z,19.30
2019-03-25T10:12:36.643Z,19.70
2019-03-25T10:15:11.050Z,19.80
2019-03-25T10:17:46.045Z,19.00
2019-03-25T10:20:20.876Z,19.10
2019-03-25T10:22:55.339Z,19.20
2019-03-25T10:25:31.118Z,19.20
2019-03-25T10:28:05.969Z,19.40
2019-03-25T10:30:40.552Z,19.10
2019-03-25T10:33:15.205Z,18.80
2019-03-25T10:35:49.909Z,18.50
2019-03-25T10:38:24.807Z,18.60
2019-03-25T10:40:59.369Z,18.40
2019-03-25T10:43:33.846Z,18.10
2019-03-25T10:46:08.008Z,18.00
2019-03-25T10:48:42.568Z,18.10
2019-03-25T10:51:17.044Z,18.50
2019-03-25T10:53:51.852Z,18.80
2019-03-25T10:56:26.885Z,18.60
2019-03-25T10:59:01.583Z,17.80
2019-03-25T11:01:36.492Z,17.30
2019-03-25T11:04:11.346Z,16.90
2019-03-25T11:06:46.255Z,16.70
2019-03-25T11:09:21.104Z,17.10
2019-03-25T11:11:55.309Z,17.20
2019-03-25T11:14:29.875Z,17.70
2019-03-25T11:17:04.323Z,18.00
2019-03-25T11:19:39.016Z,17.90
2019-03-25T11:22:12.889Z,18.00
2019-03-25T11:24:47.269Z,18.70
2019-03-25T11:27:20.847Z,19.10
2019-03-25T11:29:55.562Z,19.30
2019-03-25T11:32:30.998Z,19.60
2019-03-25T11:35:05.736Z,19.30
2019-03-25T11:37:40.398Z,19.50
2019-03-25T11:40:17.641Z,19.60
2019-03-25T11:42:52.267Z,19.80
2019-03-25T11:45:27.272Z,20.10
2019-03-25T11:48:01.228Z,20.40
2019-03-25T11:50:36.498Z,20.50
2019-03-25T11:53:12.202Z,20.60
2019-03-25T11:55:47.058Z,20.60
2019-03-25T11:58:21.461Z,20.60
2019-03-25T12:00:57.099Z,20.40
2019-03-25T12:03:32.489Z,20.40
2019-03-25T12:06:07.209Z,19.70
2019-03-25T12:08:42.241Z,19.50
2019-03-25T12:11:17.322Z,19.40
2019-03-25T12:13:51.915Z,19.00
2019-03-25T12:16:28.345Z,18.40
2019-03-25T12:19:03.212Z,18.20
2019-03-25T12:21:37.739Z,18.30
2019-03-25T12:24:12.527Z,18.60
2019-03-25T12:26:47.568Z,18.80
2019-03-25T12:29:29.939Z,19.20
2019-03-25T12:31:59.538Z,19.80
2019-03-25T12:34:34.165Z,20.40
2019-03-25T12:37:08.548Z,20.90
2019-03-25T12:39:42.728Z,21.00
2019-03-25T12:42:17.652Z,21.10
2019-03-25T12:44:52.295Z,20.90
2019-03-25T12:47:27.499Z,20.60
2019-03-25T12:50:01.262Z,19.90
2019-03-25T12:52:35.289Z,19.60
2019-03-25T12:55:09.811Z,19.20
2019-03-25T12:57:42.997Z,19.10
2019-03-25T13:00:18.102Z,18.70
2019-03-25T13:02:51.838Z,18.50
2019-03-25T13:05:25.968Z,17.90
2019-03-25T13:07:59.941Z,16.50
2019-03-25T13:10:34.998Z,14.90
2019-03-25T13:13:10.021Z,13.80
2019-03-25T13:15:43.984Z,13.30
2019-03-25T13:18:17.556Z,12.90
2019-03-25T13:20:50.999Z,12.50
2019-03-25T13:23:25.606Z,12.40
2019-03-25T13:26:00.011Z,12.40
2019-03-25T13:28:35.039Z,13.60
2019-03-25T13:31:08.482Z,14.20
2019-03-25T13:33:42.490Z,13.90
2019-03-25T13:36:16.875Z,13.70
2019-03-25T13:38:51.266Z,13.50
2019-03-25T13:41:25.267Z,13.60
2019-03-25T13:43:59.851Z,13.70
2019-03-25T13:46:34.573Z,14.40
2019-03-25T13:49:08.995Z,15.40
2019-03-25T13:51:43.631Z,15.60
2019-03-25T13:54:18.803Z,15.90
2019-03-25T13:56:53.050Z,16.60
2019-03-25T13:59:27.653Z,16.00
2019-03-25T14:02:02.751Z,15.10
2019-03-25T14:04:35.414Z,14.80
2019-03-25T14:07:09.852Z,14.00
2019-03-25T14:09:43.808Z,13.50
2019-03-25T14:12:16.633Z,13.20
2019-03-25T14:14:51.751Z,13.70
2019-03-25T14:17:24.978Z,13.40
2019-03-25T14:19:59.631Z,13.70
2019-03-25T14:22:33.128Z,14.10
2019-03-25T14:25:07.193Z,14.80
2019-03-25T14:27:41.047Z,14.40
2019-03-25T14:30:17.554Z,14.40
2019-03-25T14:32:51.702Z,14.90
2019-03-25T14:35:25.625Z,14.90
2019-03-25T14:37:59.637Z,15.10
2019-03-25T14:40:33.940Z,15.30
2019-03-25T14:43:07.087Z,14.80
2019-03-25T14:45:40.982Z,15.20
2019-03-25T14:48:14.588Z,16.20
2019-03-25T14:50:47.760Z,16.60
2019-03-25T14:53:21.534Z,16.80
2019-03-25T14:55:55.862Z,16.90
2019-03-25T14:58:30.662Z,16.60
2019-03-25T15:01:05.298Z,16.30
2019-03-25T15:03:39.764Z,16.20
2019-03-25T15:06:14.119Z,16.00
2019-03-25T15:08:48.089Z,15.50
2019-03-25T15:11:23.065Z,15.30
2019-03-25T15:13:56.378Z,15.30
2019-03-25T15:16:30.700Z,15.40
2019-03-25T15:19:05.830Z,15.20
2019-03-25T15:21:40.438Z,14.90
2019-03-25T15:24:15.016Z,15.10
2019-03-25T15:26:49.219Z,15.70
2019-03-25T15:29:23.706Z,16.20
2019-03-25T15:31:58.390Z,16.20
2019-03-25T15:34:33.246Z,16.40
2019-03-25T15:37:07.687Z,16.00
2019-03-25T15:39:46.837Z,15.80
2019-03-25T15:42:20.249Z,15.60
2019-03-25T15:44:54.603Z,15.40
2019-03-25T15:47:28.610Z,15.30
2019-03-25T15:50:02.944Z,14.80
2019-03-25T15:52:37.750Z,14.80
2019-03-25T15:55:12.937Z,14.80
2019-03-25T15:57:47.227Z,15.00
2019-03-25T16:00:21.329Z,14.90
2019-03-25T16:02:55.872Z,15.30
2019-03-25T16:05:30.530Z,15.60
2019-03-25T16:08:04.408Z,15.70
2019-03-25T16:10:39.536Z,15.60
2019-03-25T16:13:14.407Z,15.20
2019-03-25T16:15:50.113Z,14.90
2019-03-25T16:18:41.583Z,15.20
2019-03-25T16:21:16.210Z,15.40
2019-03-25T16:23:50.637Z,15.60
2019-03-25T16:26:24.909Z,15.40
2019-03-25T16:28:59.235Z,15.20
2019-03-25T16:31:33.657Z,15.20
2019-03-25T16:34:08.096Z,15.70
2019-03-25T16:36:42.836Z,15.60
2019-03-25T16:39:16.813Z,16.10
2019-03-25T16:41:52.401Z,16.10
2019-03-25T16:44:26.371Z,16.30
2019-03-25T16:46:59.942Z,16.10
2019-03-25T16:49:33.843Z,16.10
2019-03-25T16:52:07.455Z,16.30
2019-03-25T16:54:41.081Z,16.20
2019-03-25T16:57:16.830Z,15.90
2019-03-25T16:59:50.634Z,16.00
2019-03-25T17:02:26.030Z,15.80
2019-03-25T17:05:00.918Z,15.60
2019-03-25T17:07:35.178Z,15.50
2019-03-25T17:10:08.522Z,15.60
2019-03-25T17:12:42.714Z,15.80
2019-03-25T17:15:17.829Z,16.10
2019-03-25T17:17:51.614Z,16.00
2019-03-25T17:20:26.572Z,16.10
2019-03-25T17:23:01.388Z,16.10
2019-03-25T17:25:36.384Z,16.00
2019-03-25T17:28:11.273Z,16.00
2019-03-25T17:30:45.696Z,16.10
2019-03-25T17:33:20.338Z,15.90
2019-03-25T17:35:54.594Z,15.80
2019-03-25T17:38:29.466Z,15.90
2019-03-25T17:41:03.836Z,15.90
2019-03-25T17:43:38.352Z,15.90
2019-03-25T17:46:12.595Z,15.60
2019-03-25T17:48:47.466Z,15.40
2019-03-25T17:51:20.521Z,15.40
2019-03-25T17:53:54.980Z,15.70
2019-03-25T17:56:29.744Z,15.90
2019-03-25T17:59:04.453Z,16.00
2019-03-25T18:01:39.905Z,16.10
2019-03-25T18:04:14.865Z,16.50
2019-03-25T18:06:49.865Z,16.90
2019-03-25T18:09:24.172Z,16.90
2019-03-25T18:11:58.634Z,16.10
2019-03-25T18:14:32.624Z,16.40
2019-03-25T18:17:06.976Z,16.20
2019-03-25T18:19:42.118Z,15.90
2019-03-25T18:22:16.786Z,15.20
2019-03-25T18:24:51.555Z,15.20
2019-03-25T18:27:29.164Z,15.20
2019-03-25T18:30:03.300Z,15.00
2019-03-25T18:32:37.162Z,15.50
2019-03-25T18:35:11.955Z,15.40
2019-03-25T18:37:44.780Z,15.10
2019-03-25T18:40:18.385Z,15.30
2019-03-25T18:42:52.962Z,14.80
2019-03-25T18:45:26.510Z,14.70
2019-03-25T18:48:00.822Z,14.90
2019-03-25T18:50:35.102Z,15.10
2019-03-25T18:53:09.102Z,14.60
2019-03-25T18:55:43.212Z,14.00
2019-03-25T18:58:16.520Z,14.20
2019-03-25T19:00:51.903Z,14.70
2019-03-25T19:03:26.492Z,15.30
2019-03-25T19:06:00.294Z,15.70
2019-03-25T19:08:38.393Z,15.90
2019-03-25T19:11:11.902Z,16.30
2019-03-25T19:13:47.992Z,16.40
2019-03-25T19:16:24.123Z,16.30
2019-03-25T19:18:56.928Z,15.90
2019-03-25T19:21:30.907Z,15.70
2019-03-25T19:24:04.352Z,15.70
2019-03-25T19:26:39.314Z,15.90
2019-03-25T19:29:13.977Z,15.90
2019-03-25T19:31:47.380Z,15.70
2019-03-25T19:34:20.641Z,15.80
2019-03-25T19:36:54.315Z,15.60
2019-03-25T19:39:28.862Z,15.70
2019-03-25T19:42:02.569Z,15.90
2019-03-25T19:44:37.328Z,15.70
2019-03-25T19:47:11.801Z,15.40
2019-03-25T19:49:45.035Z,15.70
2019-03-25T19:52:20.519Z,15.70
2019-03-25T19:54:54.078Z,15.90
2019-03-25T19:57:28.464Z,15.90
2019-03-25T20:00:02.489Z,15.80
2019-03-25T20:02:37.064Z,16.00
2019-03-25T20:05:11.336Z,16.10
2019-03-25T20:07:45.356Z,16.20
2019-03-25T20:10:35.778Z,15.90
2019-03-25T20:13:10.634Z,15.50
2019-03-25T20:15:46.836Z,15.70
2019-03-25T20:18:21.453Z,16.10
2019-03-25T20:20:55.827Z,16.20
2019-03-25T20:23:28.976Z,16.20
2019-03-25T20:26:02.050Z,16.10
2019-03-25T20:28:35.931Z,15.90
2019-03-25T20:31:09.219Z,15.80
2019-03-25T20:33:42.761Z,15.90
2019-03-25T20:36:17.420Z,16.00
2019-03-25T20:38:51.805Z,15.80
2019-03-25T20:41:26.149Z,15.50
2019-03-25T20:43:59.441Z,15.60
2019-03-25T20:46:33.549Z,15.50
2019-03-25T20:49:07.200Z,15.40
2019-03-25T20:51:40.333Z,15.00
2019-03-25T20:54:14.079Z,14.90
2019-03-25T20:56:48.948Z,14.90
2019-03-25T20:59:22.230Z,14.90
2019-03-25T21:01:56.582Z,15.10
2019-03-25T21:04:29.989Z,15.30
2019-03-25T21:07:04.169Z,15.20
2019-03-25T21:09:39.540Z,15.10
2019-03-25T21:12:14.807Z,15.30
2019-03-25T21:14:49.776Z,15.20
2019-03-25T21:17:24.622Z,15.20
2019-03-25T21:19:59.652Z,15.10
2019-03-25T21:22:34.889Z,14.90
2019-03-25T21:25:10.644Z,15.10
2019-03-25T21:27:44.632Z,14.70
2019-03-25T21:30:19.969Z,14.50
2019-03-25T21:32:58.534Z,14.80
2019-03-25T21:35:31.309Z,14.70
2019-03-25T21:38:05.957Z,14.60
2019-03-25T21:40:40.364Z,14.80
2019-03-25T21:43:15.544Z,14.90
2019-03-25T21:45:49.855Z,14.90
2019-03-25T21:48:24.420Z,14.80
2019-03-25T21:50:59.439Z,14.60
2019-03-25T21:53:34.370Z,14.50
2019-03-25T21:56:08.837Z,14.50
2019-03-25T21:58:43.979Z,14.50
2019-03-25T22:01:17.942Z,14.90
2019-03-25T22:03:52.408Z,15.00
2019-03-25T22:06:26.811Z,14.70
2019-03-25T22:09:01.252Z,14.90
2019-03-25T22:11:35.892Z,14.80
2019-03-25T22:14:10.624Z,14.80
2019-03-25T22:16:45.532Z,15.00
2019-03-25T22:19:20.669Z,14.90
2019-03-25T22:21:55.222Z,14.80
2019-03-25T22:24:30.233Z,15.00
2019-03-25T22:27:04.743Z,14.70
2019-03-25T22:29:39.671Z,14.40
2019-03-25T22:32:13.898Z,14.40
2019-03-25T22:34:49.022Z,14.60
2019-03-25T22:37:23.746Z,14.80
2019-03-25T22:39:58.540Z,15.00
2019-03-25T22:42:33.731Z,14.80
2019-03-25T22:45:08.788Z,15.00
2019-03-25T22:47:44.173Z,15.20
2019-03-25T22:50:32.277Z,14.90
2019-03-25T22:53:07.296Z,14.70
2019-03-25T22:55:41.840Z,14.80
2019-03-25T22:58:16.358Z,14.90
2019-03-25T23:00:51.426Z,14.60
2019-03-25T23:03:38.503Z,14.90
2019-03-25T23:06:02.902Z,15.20
2019-03-25T23:08:37.423Z,15.40
2019-03-25T23:11:11.590Z,15.50
2019-03-25T23:13:46.677Z,15.50
2019-03-25T23:16:20.855Z,15.60
2019-03-25T23:18:55.801Z,15.60
2019-03-25T23:21:29.835Z,15.40
2019-03-25T23:24:04.748Z,15.40
2019-03-25T23:26:39.292Z,15.90
2019-03-25T23:29:13.795Z,15.80
2019-03-25T23:31:49.627Z,15.60
2019-03-25T23:34:24.689Z,15.50
2019-03-25T23:36:59.308Z,15.70
2019-03-25T23:39:34.019Z,16.10
2019-03-25T23:42:08.586Z,16.20
2019-03-25T23:44:43.495Z,16.20
2019-03-25T23:47:18.043Z,16.10
2019-03-25T23:49:53.053Z,15.90
2019-03-25T23:52:27.987Z,16.10
2019-03-25T23:55:02.066Z,16.20
2019-03-25T23:57:37.123Z,16.10
